createdAt,value
2023-04-23T01:22:28.705Z,99.90
2023-04-23T01:28:45.619Z,99.90
2023-04-23T01:33:19.766Z,99.90
2023-04-23T01:38:31.453Z,99.90
2023-04-23T01:50:27.374Z,99.90
2023-04-23T01:55:52.730Z,99.90
2023-04-23T02:01:48.036Z,99.90
2023-04-23T02:07:26.603Z,99.90
2023-04-23T02:12:52.596Z,99.90
2023-04-23T02:24:52.861Z,99.90
2023-04-23T02:31:34.008Z,99.90
2023-04-23T02:42:43.837Z,99.90
2023-04-23T02:48:21.529Z,99.90
2023-04-23T02:59:36.825Z,99.90
2023-04-23T03:10:48.619Z,99.90
2023-04-23T03:17:17.611Z,99.90
2023-04-23T03:22:26.984Z,99.90
2023-04-23T03:35:16.738Z,99.90
2023-04-23T03:47:15.969Z,99.90
2023-04-23T05:07:01.301Z,99.90
2023-04-23T05:18:39.868Z,99.90
2023-04-23T05:23:41.739Z,99.90
2023-04-23T05:28:43.506Z,99.90
2023-04-23T05:33:50.286Z,99.90
2023-04-23T05:38:52.700Z,99.90
2023-04-23T05:43:54.527Z,99.90
2023-04-23T05:48:56.370Z,99.90
2023-04-23T05:53:58.221Z,99.90
2023-04-23T05:59:00.112Z,99.90
2023-04-23T06:04:02.114Z,99.90
2023-04-23T06:09:04.511Z,99.90
2023-04-23T06:14:06.376Z,99.90
2023-04-23T06:19:08.231Z,99.90
2023-04-23T06:24:10.128Z,99.90
2023-04-23T06:29:12.025Z,99.90
2023-04-23T06:34:14.013Z,99.90
2023-04-23T06:39:16.299Z,99.90
2023-04-23T06:44:18.106Z,99.90
2023-04-23T06:49:20.200Z,99.90
2023-04-23T06:54:22.263Z,99.90
2023-04-23T06:59:24.120Z,99.90
2023-04-23T07:04:26.044Z,99.90
2023-04-23T07:09:28.745Z,99.90
2023-04-23T07:14:30.775Z,99.90
2023-04-23T07:19:32.615Z,99.90
2023-04-23T07:24:34.438Z,99.90
2023-04-23T07:29:36.462Z,99.90
2023-04-23T07:34:38.985Z,99.90
2023-04-23T07:39:43.820Z,99.90
2023-04-23T07:44:46.302Z,99.90
2023-04-23T07:49:48.193Z,99.90
2023-04-23T07:54:50.259Z,99.90
2023-04-23T07:59:52.284Z,99.90
2023-04-23T08:04:54.369Z,99.90
2023-04-23T08:09:59.267Z,99.90
2023-04-23T08:15:01.391Z,99.90
2023-04-23T08:20:05.646Z,99.90
2023-04-23T08:25:08.009Z,99.90
2023-04-23T08:30:18.347Z,99.90
2023-04-23T08:35:20.748Z,99.90
2023-04-23T08:40:22.881Z,99.90
2023-04-23T08:45:26.310Z,99.90
2023-04-23T08:50:29.320Z,99.90
2023-04-23T08:55:31.395Z,99.90
2023-04-23T09:00:36.626Z,99.90
2023-04-23T09:05:40.639Z,99.90
2023-04-23T09:10:42.921Z,99.90
2023-04-23T09:15:45.661Z,99.90
2023-04-23T09:20:47.663Z,99.90
2023-04-23T09:25:49.759Z,99.90
2023-04-23T09:30:51.716Z,99.90
2023-04-23T09:35:53.602Z,99.90
2023-04-23T09:40:57.325Z,99.90
2023-04-23T09:45:59.407Z,99.90
2023-04-23T09:51:02.388Z,99.90
2023-04-23T09:56:04.263Z,99.90
2023-04-23T10:01:08.047Z,99.90
2023-04-23T10:11:43.435Z,99.90
2023-04-23T10:16:49.349Z,99.90
2023-04-23T10:22:18.456Z,99.90
2023-04-23T10:32:28.094Z,99.90
2023-04-23T10:37:30.426Z,99.90
2023-04-23T10:42:32.451Z,99.90
2023-04-23T10:47:34.504Z,99.90
2023-04-23T10:52:36.630Z,99.90
2023-04-23T10:57:58.134Z,99.90
2023-04-23T11:03:02.480Z,99.90
2023-04-23T11:08:18.644Z,99.90
2023-04-23T11:13:24.748Z,99.90
2023-04-23T11:18:27.612Z,99.90
2023-04-23T11:23:32.556Z,99.90
2023-04-23T11:28:35.387Z,99.90
2023-04-23T11:33:38.810Z,99.90
2023-04-23T11:38:41.896Z,99.90
2023-04-23T11:43:43.761Z,99.90
2023-04-23T11:48:45.737Z,99.90
2023-04-23T11:53:48.333Z,99.90
2023-04-23T11:59:03.776Z,99.90
2023-04-23T12:04:16.279Z,99.90
2023-04-23T12:09:21.178Z,99.90
2023-04-23T12:14:29.004Z,99.90
2023-04-23T12:19:31.625Z,99.90
2023-04-23T12:24:48.524Z,99.90
2023-04-23T12:30:00.278Z,99.90
2023-04-23T12:35:02.282Z,99.90
2023-04-23T12:40:07.285Z,99.90
2023-04-23T12:45:10.358Z,99.90
2023-04-23T12:50:12.283Z,99.90
2023-04-23T12:55:14.441Z,99.90
2023-04-23T13:00:16.922Z,99.90
2023-04-23T13:05:18.881Z,99.90
2023-04-23T13:10:21.173Z,99.90
2023-04-23T13:15:23.498Z,99.90
2023-04-23T13:20:26.287Z,97.60
2023-04-23T13:25:28.224Z,97.30
2023-04-23T13:30:30.268Z,96.60
2023-04-23T13:35:32.189Z,97.90
2023-04-23T13:40:34.134Z,96.30
2023-04-23T13:45:36.258Z,97.30
2023-04-23T13:50:38.353Z,99.30
2023-04-23T13:55:40.398Z,97.50
2023-04-23T14:00:43.103Z,99.90
2023-04-23T14:05:45.055Z,99.90
2023-04-23T14:10:47.026Z,99.90
2023-04-23T14:15:48.981Z,99.90
2023-04-23T14:20:51.323Z,99.90
2023-04-23T14:25:58.977Z,99.90
2023-04-23T14:31:01.680Z,99.90
2023-04-23T14:36:03.655Z,99.90
2023-04-23T14:41:05.552Z,99.90
2023-04-23T14:46:07.680Z,99.90
2023-04-23T14:51:09.499Z,99.90
2023-04-23T14:56:11.397Z,99.90
2023-04-23T15:01:13.394Z,99.90
2023-04-23T15:06:15.257Z,99.90
2023-04-23T15:11:17.169Z,99.90
2023-04-23T15:21:36.877Z,99.90
2023-04-23T15:26:39.085Z,99.90
2023-04-23T15:31:41.707Z,99.90
2023-04-23T15:36:43.775Z,99.90
2023-04-23T15:41:46.454Z,99.90
2023-04-23T15:46:48.472Z,99.90
2023-04-23T15:51:50.372Z,99.90
2023-04-23T15:56:52.217Z,99.90
2023-04-23T16:01:54.146Z,99.90
2023-04-23T16:06:55.976Z,99.90
2023-04-23T16:11:57.861Z,99.90
2023-04-23T16:17:01.058Z,99.90
2023-04-23T16:22:03.044Z,99.90
2023-04-23T16:27:06.798Z,99.90
2023-04-23T16:32:08.689Z,99.90
2023-04-23T16:37:12.959Z,99.90
2023-04-23T16:42:14.914Z,99.90
2023-04-23T16:47:16.864Z,99.90
2023-04-23T16:52:18.806Z,99.90
2023-04-23T16:57:20.841Z,99.90
2023-04-23T17:02:22.907Z,99.90
2023-04-23T17:07:24.960Z,99.90
2023-04-23T17:12:27.047Z,99.90
2023-04-23T17:17:29.109Z,99.90
2023-04-23T17:22:31.028Z,99.90
2023-04-23T17:27:33.120Z,99.90
2023-04-23T17:32:35.174Z,99.90
2023-04-23T17:37:37.091Z,99.90
2023-04-23T17:42:38.958Z,99.90
2023-04-23T17:47:41.140Z,99.90
2023-04-23T17:52:45.006Z,99.90
2023-04-23T17:57:46.886Z,99.90
2023-04-23T18:02:48.813Z,99.90
2023-04-23T18:07:50.827Z,99.90
2023-04-23T18:12:52.845Z,99.90
2023-04-23T18:17:55.919Z,99.90
2023-04-23T18:22:57.969Z,99.90
2023-04-23T18:28:00.241Z,99.90
2023-04-23T18:33:31.512Z,99.90
2023-04-23T18:38:39.250Z,99.90
2023-04-23T18:43:41.419Z,99.90
2023-04-23T18:48:52.526Z,99.90
2023-04-23T18:53:54.518Z,99.90
2023-04-23T18:58:56.410Z,99.90
2023-04-23T19:03:59.119Z,99.90
2023-04-23T19:09:01.631Z,99.90
2023-04-23T19:39:19.096Z,99.90
2023-04-23T19:51:09.470Z,99.90
2023-04-23T20:03:36.973Z,99.90
2023-04-23T22:14:08.200Z,99.90
2023-04-23T22:37:43.788Z,99.90
2023-04-23T22:49:27.809Z,99.90
2023-04-23T23:00:08.725Z,99.90
2023-04-23T23:11:38.832Z,99.90
2023-04-23T23:17:13.866Z,99.90
2023-04-23T23:22:30.548Z,99.90
2023-04-23T23:27:38.529Z,99.90
2023-04-23T23:39:24.286Z,99.90
2023-04-23T23:45:18.290Z,99.90
2023-04-23T23:51:20.380Z,99.90
